Time;durP1;ratioP1;P1;durP2;ratioP2;P2;SDS_P1;SDS_P2;PMS_P1;PMS_P2;Temp;Humidity;BMP_temperature;BMP_pressure;BME280_temperature;BME280_humidity;BME280_pressure;Samples;Min_cycle;Max_cycle;Signal;HPM_P1;HPM_P2
2023/02/16 00:01:17;;;;;;;;;;;5.60;99.90;;;;;;4993057;28;19926;-69
2023/02/16 00:03:44;;;;;;;;;;;5.60;99.90;;;;;;4949831;28;20006;-68
2023/02/16 00:06:14;;;;;;;;;;;5.60;99.90;;;;;;4952110;28;19926;-68
2023/02/16 00:08:41;;;;;;;;;;;5.50;99.90;;;;;;4951181;28;19931;-68
2023/02/16 00:13:56;;;;;;;;;;;5.50;99.90;;;;;;4929526;28;20033;-68
2023/02/16 00:16:23;;;;;;;;;;;5.50;99.90;;;;;;4951434;28;20471;-68
2023/02/16 00:18:50;;;;;;;;;;;5.40;99.90;;;;;;4950889;28;19926;-68
2023/02/16 00:21:18;;;;;;;;;;;5.40;99.90;;;;;;4951972;28;20425;-68
2023/02/16 00:23:45;;;;;;;;;;;5.40;99.90;;;;;;4947382;28;19926;-68
2023/02/16 00:26:14;;;;;;;;;;;5.40;99.90;;;;;;4950870;28;19933;-68
2023/02/16 00:28:41;;;;;;;;;;;5.40;99.90;;;;;;4949478;28;19934;-69
2023/02/16 00:31:14;;;;;;;;;;;5.30;99.90;;;;;;5004834;28;19937;-69
2023/02/16 00:33:40;;;;;;;;;;;5.30;99.90;;;;;;4950719;28;20354;-69
2023/02/16 00:36:07;;;;;;;;;;;5.30;99.90;;;;;;4951135;28;19926;-69
2023/02/16 00:38:34;;;;;;;;;;;5.20;99.90;;;;;;4955660;28;20325;-69
2023/02/16 00:41:01;;;;;;;;;;;5.20;99.90;;;;;;4950496;28;20390;-69
2023/02/16 00:43:28;;;;;;;;;;;5.20;99.90;;;;;;4950460;28;20103;-69
2023/02/16 00:45:55;;;;;;;;;;;5.10;99.90;;;;;;4955622;28;20398;-69
2023/02/16 00:48:24;;;;;;;;;;;5.10;99.90;;;;;;4971584;28;19937;-69
2023/02/16 00:50:50;;;;;;;;;;;5.00;99.90;;;;;;4935249;28;19931;-69
2023/02/16 00:53:17;;;;;;;;;;;5.00;99.90;;;;;;4951170;29;19927;-69
2023/02/16 00:55:44;;;;;;;;;;;5.00;99.90;;;;;;4951374;28;20029;-69
2023/02/16 00:58:14;;;;;;;;;;;5.00;99.90;;;;;;4967582;28;20372;-69
2023/02/16 01:00:41;;;;;;;;;;;4.90;99.90;;;;;;4949805;28;19926;-69
2023/02/16 01:03:10;;;;;;;;;;;4.90;99.90;;;;;;4949829;28;20013;-68
2023/02/16 01:05:37;;;;;;;;;;;4.90;99.90;;;;;;4972298;28;19950;-68
2023/02/16 01:11:10;;;;;;;;;;;4.80;99.90;;;;;;4933890;28;20305;-67
2023/02/16 01:13:38;;;;;;;;;;;4.80;99.90;;;;;;4947766;28;19933;-68
2023/02/16 01:16:10;;;;;;;;;;;4.70;99.90;;;;;;4949913;28;20017;-69
2023/02/16 01:18:36;;;;;;;;;;;4.80;99.90;;;;;;4960230;28;19936;-69
2023/02/16 01:21:05;;;;;;;;;;;4.80;99.90;;;;;;4951496;28;20017;-68
2023/02/16 01:23:31;;;;;;;;;;;4.80;99.90;;;;;;4949616;28;19969;-68
2023/02/16 01:25:58;;;;;;;;;;;4.80;99.90;;;;;;4950525;28;19934;-68
2023/02/16 01:28:25;;;;;;;;;;;4.90;99.90;;;;;;4975870;28;19925;-68
2023/02/16 01:30:53;;;;;;;;;;;4.90;99.90;;;;;;4951292;28;19980;-67
2023/02/16 01:33:19;;;;;;;;;;;4.90;99.90;;;;;;4954119;28;20029;-67
2023/02/16 01:35:46;;;;;;;;;;;4.90;99.90;;;;;;4950241;28;19933;-68
2023/02/16 01:38:17;;;;;;;;;;;4.90;99.90;;;;;;4968680;28;20394;-68
2023/02/16 01:40:46;;;;;;;;;;;4.90;99.90;;;;;;4951300;28;19932;-68
2023/02/16 01:43:18;;;;;;;;;;;4.90;99.90;;;;;;4949842;28;20381;-68
2023/02/16 01:45:46;;;;;;;;;;;4.80;99.90;;;;;;4947875;28;20077;-67
2023/02/16 01:48:16;;;;;;;;;;;4.90;99.90;;;;;;4971632;28;20012;-68
2023/02/16 01:50:46;;;;;;;;;;;4.90;99.90;;;;;;4950789;28;19933;-68
2023/02/16 01:53:15;;;;;;;;;;;5.00;99.90;;;;;;4949731;28;19927;-68
2023/02/16 01:55:45;;;;;;;;;;;5.10;99.90;;;;;;4949891;28;20009;-68
2023/02/16 01:58:14;;;;;;;;;;;5.10;99.90;;;;;;4951067;28;19927;-68
2023/02/16 02:00:59;;;;;;;;;;;5.20;99.90;;;;;;4950408;28;19933;-68
2023/02/16 02:06:12;;;;;;;;;;;5.20;99.90;;;;;;4948451;28;20397;-68
2023/02/16 02:08:41;;;;;;;;;;;5.20;99.90;;;;;;4973572;28;20020;-68
2023/02/16 02:11:12;;;;;;;;;;;5.10;99.90;;;;;;4951011;28;19931;-68
2023/02/16 02:13:41;;;;;;;;;;;5.10;99.90;;;;;;4949117;28;19926;-68
2023/02/16 02:16:08;;;;;;;;;;;5.10;99.90;;;;;;4947493;28;20495;-68
2023/02/16 02:18:35;;;;;;;;;;;5.10;99.90;;;;;;4948735;28;19949;-68
2023/02/16 02:24:16;;;;;;;;;;;5.10;99.90;;;;;;4976934;28;19954;-68
2023/02/16 02:26:56;;;;;;;;;;;5.10;99.90;;;;;;4948251;28;20407;-68
2023/02/16 02:29:37;;;;;;;;;;;5.10;99.90;;;;;;4949550;28;20020;-68
2023/02/16 02:32:08;;;;;;;;;;;5.10;99.90;;;;;;4958727;28;19927;-68
2023/02/16 02:34:42;;;;;;;;;;;5.10;99.90;;;;;;4949221;28;19933;-68
2023/02/16 02:37:11;;;;;;;;;;;5.10;99.90;;;;;;4949339;28;19926;-68
2023/02/16 02:39:45;;;;;;;;;;;5.00;99.90;;;;;;5018157;28;19928;-68
2023/02/16 02:42:16;;;;;;;;;;;5.00;99.90;;;;;;4948217;28;19926;-68
2023/02/16 02:44:51;;;;;;;;;;;5.00;99.90;;;;;;4953633;28;19926;-68
2023/02/16 02:47:18;;;;;;;;;;;5.10;99.90;;;;;;4948590;28;20554;-69
2023/02/16 02:49:49;;;;;;;;;;;5.20;99.90;;;;;;4957650;28;19927;-68
2023/02/16 02:52:15;;;;;;;;;;;5.20;99.90;;;;;;4953689;28;19926;-68
2023/02/16 03:03:05;;;;;;;;;;;5.20;99.90;;;;;;4951693;28;19937;-68
2023/02/16 03:05:33;;;;;;;;;;;5.20;99.90;;;;;;4953693;28;19930;-68
2023/02/16 03:08:05;;;;;;;;;;;5.20;99.90;;;;;;4949955;28;19926;-69
2023/02/16 03:13:21;;;;;;;;;;;5.20;99.90;;;;;;4952136;28;19933;-68
2023/02/16 03:15:49;;;;;;;;;;;5.20;99.90;;;;;;4952908;28;19977;-67
2023/02/16 03:29:17;;;;;;;;;;;5.00;99.90;;;;;;4971480;28;20017;-68
2023/02/16 03:31:44;;;;;;;;;;;4.90;99.90;;;;;;4951011;28;19933;-68
2023/02/16 03:34:11;;;;;;;;;;;4.90;99.90;;;;;;4951042;28;20389;-68
2023/02/16 03:36:40;;;;;;;;;;;4.90;99.90;;;;;;4944684;28;19927;-68
2023/02/16 03:39:07;;;;;;;;;;;4.90;99.90;;;;;;4987149;28;19926;-68
2023/02/16 03:41:38;;;;;;;;;;;4.90;99.90;;;;;;4988667;28;20312;-69
2023/02/16 03:44:05;;;;;;;;;;;5.00;99.90;;;;;;4944771;28;20445;-68
2023/02/16 03:46:33;;;;;;;;;;;5.10;99.90;;;;;;4955356;28;19966;-68
2023/02/16 03:48:59;;;;;;;;;;;5.20;99.90;;;;;;4956583;28;19935;-69
2023/02/16 03:51:26;;;;;;;;;;;5.30;99.90;;;;;;4952338;28;19926;-68
2023/02/16 03:53:53;;;;;;;;;;;5.40;99.90;;;;;;4944453;29;20018;-69
2023/02/16 03:56:20;;;;;;;;;;;5.50;99.90;;;;;;4959365;28;20364;-69
2023/02/16 03:58:46;;;;;;;;;;;5.50;99.90;;;;;;4957894;28;20017;-68
2023/02/16 04:01:13;;;;;;;;;;;5.60;99.90;;;;;;4953181;28;19927;-68
2023/02/16 04:03:41;;;;;;;;;;;5.60;99.90;;;;;;4950952;28;19997;-68
2023/02/16 04:06:08;;;;;;;;;;;5.70;99.90;;;;;;4952880;28;19927;-67
2023/02/16 04:08:34;;;;;;;;;;;5.70;99.90;;;;;;4953935;28;19927;-68
2023/02/16 04:12:34;;;;;;;;;;;5.80;99.90;;;;;;4951981;28;19926;-68
2023/02/16 04:13:47;;;;;;;;;;;5.80;99.90;;;;;;4948328;28;20374;-68
2023/02/16 04:16:13;;;;;;;;;;;5.90;99.90;;;;;;4945329;28;19945;-67
2023/02/16 04:18:41;;;;;;;;;;;5.90;99.90;;;;;;4952030;28;19926;-67
2023/02/16 04:21:08;;;;;;;;;;;6.00;99.90;;;;;;4951326;28;19930;-67
2023/02/16 04:23:35;;;;;;;;;;;6.00;99.90;;;;;;4950611;28;19933;-68
2023/02/16 04:26:01;;;;;;;;;;;6.00;99.90;;;;;;4951222;28;20005;-69
2023/02/16 04:28:28;;;;;;;;;;;6.10;99.90;;;;;;4952450;28;19933;-68
2023/02/16 04:30:55;;;;;;;;;;;6.10;99.90;;;;;;4948840;28;20021;-68
2023/02/16 04:33:21;;;;;;;;;;;6.10;99.90;;;;;;4949741;28;20025;-68
2023/02/16 04:35:49;;;;;;;;;;;6.10;99.90;;;;;;4950898;28;19972;-68
2023/02/16 04:38:16;;;;;;;;;;;6.10;99.90;;;;;;4952981;28;19989;-68
2023/02/16 04:40:43;;;;;;;;;;;6.10;99.90;;;;;;4951438;28;20348;-68
2023/02/16 04:43:09;;;;;;;;;;;6.10;99.90;;;;;;4949399;28;20482;-68
2023/02/16 04:45:36;;;;;;;;;;;6.10;99.90;;;;;;4951757;28;20386;-68
2023/02/16 04:48:03;;;;;;;;;;;6.10;99.90;;;;;;4962244;28;20021;-68
2023/02/16 04:50:30;;;;;;;;;;;6.10;99.90;;;;;;4976361;28;20017;-68
2023/02/16 04:52:58;;;;;;;;;;;6.10;99.90;;;;;;4950352;28;19926;-68
2023/02/16 04:55:25;;;;;;;;;;;6.10;99.90;;;;;;4950654;28;20030;-68
2023/02/16 04:57:51;;;;;;;;;;;6.10;99.90;;;;;;4955104;28;19977;-69
2023/02/16 05:00:19;;;;;;;;;;;6.10;99.90;;;;;;4939777;28;20010;-68
2023/02/16 05:02:45;;;;;;;;;;;6.10;99.90;;;;;;4954824;28;19931;-68
2023/02/16 05:05:12;;;;;;;;;;;6.10;99.90;;;;;;4950296;28;20017;-68
2023/02/16 05:07:39;;;;;;;;;;;6.10;99.90;;;;;;4949645;28;20018;-69
2023/02/16 05:10:07;;;;;;;;;;;6.20;99.90;;;;;;4950960;28;19933;-69
2023/02/16 05:15:18;;;;;;;;;;;6.20;99.90;;;;;;4984238;28;19931;-68
2023/02/16 05:17:45;;;;;;;;;;;6.20;99.90;;;;;;4961573;28;19925;-68
2023/02/16 05:20:12;;;;;;;;;;;6.20;99.90;;;;;;4949493;28;20349;-68
2023/02/16 05:22:39;;;;;;;;;;;6.30;99.90;;;;;;4940944;28;20001;-68
2023/02/16 05:25:07;;;;;;;;;;;6.20;99.90;;;;;;4948258;28;19966;-68
2023/02/16 05:27:34;;;;;;;;;;;6.30;99.90;;;;;;4980542;28;20303;-68
2023/02/16 05:30:00;;;;;;;;;;;6.30;99.90;;;;;;4999338;28;19933;-67
2023/02/16 05:32:27;;;;;;;;;;;6.30;99.90;;;;;;4949219;28;20023;-69
2023/02/16 05:34:54;;;;;;;;;;;6.40;99.90;;;;;;4953251;28;19949;-68
2023/02/16 05:37:20;;;;;;;;;;;6.40;99.90;;;;;;4947580;28;20013;-69
2023/02/16 05:39:47;;;;;;;;;;;6.40;99.90;;;;;;4962063;28;19927;-68
2023/02/16 05:42:15;;;;;;;;;;;6.40;99.90;;;;;;4949842;28;19933;-69
2023/02/16 05:44:42;;;;;;;;;;;6.40;99.90;;;;;;4950717;28;20037;-68
2023/02/16 05:47:08;;;;;;;;;;;6.40;99.90;;;;;;4949520;28;20300;-68
2023/02/16 05:49:35;;;;;;;;;;;6.40;99.90;;;;;;4942785;28;20305;-69
2023/02/16 05:52:02;;;;;;;;;;;6.40;99.90;;;;;;4946314;28;19926;-67
2023/02/16 05:54:28;;;;;;;;;;;6.40;99.90;;;;;;4950278;28;20297;-67
2023/02/16 05:56:55;;;;;;;;;;;6.40;99.90;;;;;;4951801;28;20393;-69
2023/02/16 05:59:23;;;;;;;;;;;6.40;99.90;;;;;;4957596;28;20013;-68
2023/02/16 06:01:50;;;;;;;;;;;6.40;99.90;;;;;;4940867;28;19941;-68
2023/02/16 06:04:16;;;;;;;;;;;6.40;99.90;;;;;;4949568;28;19933;-69
2023/02/16 06:06:43;;;;;;;;;;;6.40;99.90;;;;;;4947981;28;20005;-69
2023/02/16 06:09:10;;;;;;;;;;;6.40;99.90;;;;;;4961413;28;19926;-68
2023/02/16 06:11:37;;;;;;;;;;;6.40;99.90;;;;;;4948481;28;20056;-68
2023/02/16 06:14:05;;;;;;;;;;;6.40;99.90;;;;;;4937416;28;20385;-69
2023/02/16 06:16:33;;;;;;;;;;;6.40;99.90;;;;;;4949995;28;20405;-69
2023/02/16 06:19:00;;;;;;;;;;;6.40;99.90;;;;;;4949043;28;20304;-69
2023/02/16 06:21:27;;;;;;;;;;;6.40;99.90;;;;;;4948252;28;19948;-69
2023/02/16 06:23:54;;;;;;;;;;;6.40;99.90;;;;;;4951398;28;19926;-69
2023/02/16 06:26:21;;;;;;;;;;;6.40;99.90;;;;;;4944328;28;20017;-68
2023/02/16 06:28:47;;;;;;;;;;;6.50;99.90;;;;;;4946669;28;20312;-68
2023/02/16 06:31:14;;;;;;;;;;;6.50;99.90;;;;;;4945479;28;19926;-68
2023/02/16 06:33:43;;;;;;;;;;;6.50;99.90;;;;;;4947291;28;20025;-69
2023/02/16 06:36:10;;;;;;;;;;;6.50;99.90;;;;;;4944615;28;20385;-70
2023/02/16 06:38:36;;;;;;;;;;;6.50;99.90;;;;;;4949656;28;20300;-70
2023/02/16 06:41:03;;;;;;;;;;;6.50;99.90;;;;;;4948841;28;19926;-69
2023/02/16 06:43:30;;;;;;;;;;;6.50;99.90;;;;;;4954071;28;19926;-69
2023/02/16 06:45:57;;;;;;;;;;;6.60;99.90;;;;;;4952933;28;20012;-67
2023/02/16 06:48:27;;;;;;;;;;;6.60;99.90;;;;;;4951799;28;20009;-68
2023/02/16 06:50:55;;;;;;;;;;;6.60;99.90;;;;;;4945440;28;19931;-68
2023/02/16 06:53:21;;;;;;;;;;;6.60;99.90;;;;;;4946736;28;20009;-68
2023/02/16 06:55:50;;;;;;;;;;;6.60;99.90;;;;;;4947811;28;20025;-68
2023/02/16 06:58:16;;;;;;;;;;;6.60;99.90;;;;;;4946782;28;19965;-68
2023/02/16 07:00:43;;;;;;;;;;;6.60;99.90;;;;;;4945178;28;20009;-69
2023/02/16 07:03:09;;;;;;;;;;;6.60;99.90;;;;;;4943456;28;20028;-69
2023/02/16 07:05:36;;;;;;;;;;;6.60;99.90;;;;;;4958479;28;20018;-70
2023/02/16 07:08:04;;;;;;;;;;;6.60;99.90;;;;;;4947132;28;20026;-70
2023/02/16 07:10:31;;;;;;;;;;;6.60;99.90;;;;;;4943813;28;20017;-70
2023/02/16 07:12:58;;;;;;;;;;;6.60;99.90;;;;;;4947790;28;20004;-70
2023/02/16 07:15:25;;;;;;;;;;;6.60;99.90;;;;;;4952953;28;19927;-70
2023/02/16 07:17:51;;;;;;;;;;;6.60;99.90;;;;;;4995742;28;19931;-69
2023/02/16 07:20:18;;;;;;;;;;;6.60;99.90;;;;;;4954086;28;19980;-68
2023/02/16 07:22:45;;;;;;;;;;;6.60;99.90;;;;;;4947699;28;19927;-69
2023/02/16 07:25:13;;;;;;;;;;;6.60;99.90;;;;;;4941796;28;20013;-69
2023/02/16 07:27:40;;;;;;;;;;;6.60;99.90;;;;;;4949751;28;20286;-69
2023/02/16 07:30:07;;;;;;;;;;;6.60;99.90;;;;;;4947880;28;20003;-69
2023/02/16 07:32:34;;;;;;;;;;;6.60;99.90;;;;;;4953571;28;19980;-69
2023/02/16 07:35:01;;;;;;;;;;;6.60;99.90;;;;;;4951434;28;20404;-69
2023/02/16 07:37:27;;;;;;;;;;;6.60;99.90;;;;;;4950345;28;20444;-70
2023/02/16 07:39:54;;;;;;;;;;;6.70;99.90;;;;;;4953135;28;19933;-69
2023/02/16 07:42:22;;;;;;;;;;;6.70;99.90;;;;;;4982365;28;19961;-69
2023/02/16 07:44:49;;;;;;;;;;;6.70;99.90;;;;;;4948678;28;19933;-69
2023/02/16 07:47:15;;;;;;;;;;;6.70;99.90;;;;;;4949540;28;20310;-68
2023/02/16 07:49:42;;;;;;;;;;;6.80;99.90;;;;;;4955822;28;20432;-69
2023/02/16 07:52:09;;;;;;;;;;;6.80;99.90;;;;;;4950691;28;20453;-69
2023/02/16 07:54:35;;;;;;;;;;;6.80;99.90;;;;;;4951737;28;19933;-69
2023/02/16 07:57:02;;;;;;;;;;;6.90;99.90;;;;;;4966365;28;20009;-70
2023/02/16 07:59:30;;;;;;;;;;;7.00;99.90;;;;;;4952452;28;20297;-69
2023/02/16 08:01:57;;;;;;;;;;;7.00;99.90;;;;;;4953014;28;20309;-68
2023/02/16 08:04:23;;;;;;;;;;;7.10;99.90;;;;;;4947251;28;19986;-69
2023/02/16 08:06:50;;;;;;;;;;;7.10;99.90;;;;;;4976008;28;19941;-69
2023/02/16 08:09:17;;;;;;;;;;;7.10;99.90;;;;;;4996408;28;19925;-68
2023/02/16 08:11:44;;;;;;;;;;;7.10;99.90;;;;;;4971943;28;19962;-69
2023/02/16 08:14:10;;;;;;;;;;;7.10;99.90;;;;;;4949637;28;19930;-68
2023/02/16 08:16:38;;;;;;;;;;;7.20;99.90;;;;;;4950813;28;19931;-68
2023/02/16 08:19:05;;;;;;;;;;;7.20;99.90;;;;;;4955518;28;20029;-69
2023/02/16 08:21:32;;;;;;;;;;;7.30;99.90;;;;;;4949795;29;19934;-69
2023/02/16 08:24:00;;;;;;;;;;;7.30;99.90;;;;;;4951684;28;19927;-68
2023/02/16 08:26:27;;;;;;;;;;;7.30;99.90;;;;;;4952531;28;19933;-68
2023/02/16 08:28:56;;;;;;;;;;;7.30;99.90;;;;;;4948641;28;20444;-69
2023/02/16 08:31:24;;;;;;;;;;;7.30;99.90;;;;;;4946659;28;19927;-69
2023/02/16 08:33:53;;;;;;;;;;;7.30;99.90;;;;;;4942888;28;19930;-69
2023/02/16 08:36:22;;;;;;;;;;;7.30;99.90;;;;;;4945392;28;20035;-71
2023/02/16 08:38:49;;;;;;;;;;;7.30;99.90;;;;;;4951568;28;20035;-70
2023/02/16 08:41:16;;;;;;;;;;;7.30;99.90;;;;;;4948301;28;19926;-69
2023/02/16 08:43:43;;;;;;;;;;;7.30;99.90;;;;;;4949486;28;20326;-69
2023/02/16 08:46:10;;;;;;;;;;;7.40;99.90;;;;;;4956449;28;19931;-69
2023/02/16 08:48:38;;;;;;;;;;;7.40;99.90;;;;;;4946698;28;19941;-69
2023/02/16 08:51:07;;;;;;;;;;;7.40;99.90;;;;;;4949337;28;20717;-69
2023/02/16 08:53:34;;;;;;;;;;;7.40;99.90;;;;;;4948049;28;19981;-70
2023/02/16 08:56:02;;;;;;;;;;;7.50;99.90;;;;;;4948020;28;20521;-72
2023/02/16 08:58:29;;;;;;;;;;;7.50;99.90;;;;;;4947233;28;20297;-71
2023/02/16 09:00:56;;;;;;;;;;;7.60;99.90;;;;;;4947361;28;19933;-71
2023/02/16 09:03:23;;;;;;;;;;;7.70;99.90;;;;;;4943913;28;20375;-72
2023/02/16 09:05:51;;;;;;;;;;;7.70;99.90;;;;;;4951241;28;19930;-71
2023/02/16 09:08:20;;;;;;;;;;;7.70;99.90;;;;;;4943208;28;19941;-72
2023/02/16 09:10:47;;;;;;;;;;;7.70;99.90;;;;;;4947525;28;19951;-71
2023/02/16 09:13:14;;;;;;;;;;;7.70;99.90;;;;;;4956205;28;19927;-72
2023/02/16 09:15:42;;;;;;;;;;;7.70;99.90;;;;;;4948235;28;19953;-71
2023/02/16 09:18:09;;;;;;;;;;;7.70;99.90;;;;;;4948897;28;20616;-72
2023/02/16 09:20:36;;;;;;;;;;;7.60;99.90;;;;;;4947682;28;19942;-72
2023/02/16 09:23:03;;;;;;;;;;;7.60;99.90;;;;;;4948646;28;20021;-72
2023/02/16 09:25:31;;;;;;;;;;;7.70;99.90;;;;;;4945803;28;20006;-72
2023/02/16 09:27:58;;;;;;;;;;;7.70;99.90;;;;;;4943737;28;20326;-73
2023/02/16 09:30:24;;;;;;;;;;;7.80;99.90;;;;;;4953270;28;19926;-73
2023/02/16 09:32:51;;;;;;;;;;;7.80;99.90;;;;;;4946123;28;19941;-74
2023/02/16 09:35:18;;;;;;;;;;;7.80;99.90;;;;;;4947375;28;19933;-75
2023/02/16 09:37:45;;;;;;;;;;;7.80;99.90;;;;;;4951262;28;19927;-75
2023/02/16 09:40:13;;;;;;;;;;;7.80;99.90;;;;;;4949603;28;19927;-74
2023/02/16 09:42:49;;;;;;;;;;;7.80;99.90;;;;;;4949274;28;19934;-72
2023/02/16 09:45:17;;;;;;;;;;;7.90;99.90;;;;;;4950532;28;20029;-74
2023/02/16 09:47:45;;;;;;;;;;;8.00;99.90;;;;;;4949896;28;19967;-73
2023/02/16 09:50:14;;;;;;;;;;;8.00;99.90;;;;;;4947496;28;19956;-74
2023/02/16 09:52:45;;;;;;;;;;;8.10;99.90;;;;;;4946187;28;21171;-73
2023/02/16 09:55:13;;;;;;;;;;;8.00;99.90;;;;;;4946707;28;19941;-73
2023/02/16 09:57:55;;;;;;;;;;;8.00;99.90;;;;;;4945373;28;20294;-74
2023/02/16 10:00:26;;;;;;;;;;;7.90;99.90;;;;;;4952316;28;19934;-73
2023/02/16 10:02:56;;;;;;;;;;;7.90;99.90;;;;;;4946540;28;19927;-73
2023/02/16 10:05:29;;;;;;;;;;;7.90;99.90;;;;;;4948391;28;19933;-74
2023/02/16 10:07:58;;;;;;;;;;;8.00;99.90;;;;;;4939989;28;19930;-73
2023/02/16 10:10:30;;;;;;;;;;;8.10;99.90;;;;;;4949451;28;20302;-73
2023/02/16 10:13:00;;;;;;;;;;;8.30;99.90;;;;;;4948479;28;19972;-73
2023/02/16 10:15:29;;;;;;;;;;;8.60;99.90;;;;;;4943878;28;19934;-74
2023/02/16 10:17:57;;;;;;;;;;;8.70;99.90;;;;;;4947282;28;19934;-73
2023/02/16 10:20:26;;;;;;;;;;;8.60;99.90;;;;;;4950242;29;19927;-73
2023/02/16 10:22:58;;;;;;;;;;;8.60;99.90;;;;;;4949518;28;19988;-74
2023/02/16 10:25:27;;;;;;;;;;;8.80;99.90;;;;;;4949121;28;19926;-74
2023/02/16 10:27:58;;;;;;;;;;;8.70;99.90;;;;;;4946583;28;20658;-74
2023/02/16 10:30:30;;;;;;;;;;;8.60;99.90;;;;;;4947534;28;20006;-75
2023/02/16 10:32:59;;;;;;;;;;;8.60;99.90;;;;;;4952818;28;19926;-74
2023/02/16 10:35:31;;;;;;;;;;;8.50;99.90;;;;;;4951025;28;19930;-74
2023/02/16 10:38:01;;;;;;;;;;;8.60;99.90;;;;;;4947262;28;20005;-76
2023/02/16 10:40:33;;;;;;;;;;;8.90;99.90;;;;;;4947907;28;20270;-75
2023/02/16 10:43:03;;;;;;;;;;;9.10;99.90;;;;;;4945961;28;19933;-75
2023/02/16 10:45:33;;;;;;;;;;;9.20;99.90;;;;;;4947011;28;19930;-75
2023/02/16 10:48:00;;;;;;;;;;;9.30;99.90;;;;;;4945926;28;20365;-75
2023/02/16 10:50:28;;;;;;;;;;;9.40;99.90;;;;;;4953607;28;19979;-76
2023/02/16 10:52:57;;;;;;;;;;;9.60;99.90;;;;;;4944719;28;19965;-76
2023/02/16 10:55:24;;;;;;;;;;;9.80;99.90;;;;;;4944503;28;19926;-73
2023/02/16 10:57:54;;;;;;;;;;;9.70;99.90;;;;;;4948213;28;20382;-74
2023/02/16 11:00:23;;;;;;;;;;;9.80;99.90;;;;;;4947295;28;19930;-75
2023/02/16 11:02:52;;;;;;;;;;;9.80;99.90;;;;;;4946893;28;19933;-74
2023/02/16 11:05:29;;;;;;;;;;;9.70;99.90;;;;;;4947579;28;20279;-73
2023/02/16 11:08:00;;;;;;;;;;;9.70;99.90;;;;;;4941177;28;19926;-74
2023/02/16 11:10:34;;;;;;;;;;;9.70;99.90;;;;;;4946781;28;19931;-74
2023/02/16 11:13:00;;;;;;;;;;;9.80;99.90;;;;;;4948412;28;19926;-74
2023/02/16 11:15:28;;;;;;;;;;;9.90;99.90;;;;;;4945247;28;19933;-73
2023/02/16 11:17:57;;;;;;;;;;;10.10;99.90;;;;;;4946678;28;19926;-73
2023/02/16 11:20:27;;;;;;;;;;;10.10;99.90;;;;;;4948873;28;19926;-73
2023/02/16 11:22:54;;;;;;;;;;;10.20;99.90;;;;;;4953043;28;19926;-73
2023/02/16 11:25:22;;;;;;;;;;;10.30;99.90;;;;;;4949233;28;19935;-73
2023/02/16 11:27:50;;;;;;;;;;;10.20;99.90;;;;;;4949920;28;20417;-74
2023/02/16 11:30:21;;;;;;;;;;;10.20;99.90;;;;;;4961390;28;20382;-75
2023/02/16 11:32:48;;;;;;;;;;;10.30;99.90;;;;;;4949527;28;19980;-75
2023/02/16 11:35:16;;;;;;;;;;;10.40;99.90;;;;;;4947886;28;19926;-74
2023/02/16 11:37:43;;;;;;;;;;;10.50;99.90;;;;;;4948560;28;19930;-74
2023/02/16 11:40:18;;;;;;;;;;;10.50;99.90;;;;;;4955591;28;19926;-75
2023/02/16 11:42:46;;;;;;;;;;;10.60;99.90;;;;;;4948484;28;19927;-74
2023/02/16 11:45:22;;;;;;;;;;;10.70;99.90;;;;;;4952106;28;19939;-74
2023/02/16 11:47:52;;;;;;;;;;;10.90;99.90;;;;;;4948168;28;19933;-74
2023/02/16 11:50:22;;;;;;;;;;;10.80;99.90;;;;;;4959145;28;20357;-74
2023/02/16 11:52:50;;;;;;;;;;;10.90;99.90;;;;;;4942719;28;19926;-74
2023/02/16 11:55:21;;;;;;;;;;;11.00;99.90;;;;;;4950984;28;20009;-75
2023/02/16 11:57:49;;;;;;;;;;;11.20;99.90;;;;;;4947847;28;21365;-75
2023/02/16 12:00:17;;;;;;;;;;;11.30;99.90;;;;;;4947786;28;20330;-75
2023/02/16 12:02:59;;;;;;;;;;;11.20;99.90;;;;;;4943270;28;19984;-73
2023/02/16 12:05:33;;;;;;;;;;;11.10;99.90;;;;;;4943160;28;22297;-74
2023/02/16 12:08:08;;;;;;;;;;;11.10;99.90;;;;;;4946890;28;20292;-75
2023/02/16 12:10:38;;;;;;;;;;;11.20;99.90;;;;;;4950308;28;19970;-75
2023/02/16 12:13:13;;;;;;;;;;;11.30;99.90;;;;;;4950493;28;20025;-75
2023/02/16 12:15:44;;;;;;;;;;;11.30;99.90;;;;;;4952577;28;20013;-75
2023/02/16 12:18:16;;;;;;;;;;;11.50;99.90;;;;;;4949055;28;20407;-74
2023/02/16 12:20:49;;;;;;;;;;;11.50;99.90;;;;;;4947215;28;20445;-74
2023/02/16 12:23:25;;;;;;;;;;;11.60;99.90;;;;;;4948273;28;19927;-74
2023/02/16 12:26:00;;;;;;;;;;;11.60;99.90;;;;;;4947379;28;19939;-74
2023/02/16 12:28:29;;;;;;;;;;;11.80;99.90;;;;;;4950862;28;19926;-74
2023/02/16 12:31:01;;;;;;;;;;;11.90;99.90;;;;;;4950046;28;20393;-75
2023/02/16 12:33:35;;;;;;;;;;;12.10;99.90;;;;;;4948926;28;19932;-73
2023/02/16 12:36:20;;;;;;;;;;;12.10;99.90;;;;;;4951578;28;19938;-74
2023/02/16 12:38:52;;;;;;;;;;;11.90;99.90;;;;;;4951585;28;20340;-73
2023/02/16 12:41:25;;;;;;;;;;;11.90;99.90;;;;;;4951173;28;19927;-74
2023/02/16 12:43:53;;;;;;;;;;;11.90;99.90;;;;;;4949643;28;19966;-74
2023/02/16 12:46:23;;;;;;;;;;;11.90;99.90;;;;;;4943424;28;19935;-73
2023/02/16 12:48:51;;;;;;;;;;;11.90;99.90;;;;;;4946310;28;19950;-74
2023/02/16 12:51:20;;;;;;;;;;;11.80;99.90;;;;;;4951324;28;19935;-74
2023/02/16 12:53:50;;;;;;;;;;;11.70;99.90;;;;;;4949119;28;20009;-74
2023/02/16 12:56:22;;;;;;;;;;;11.70;99.90;;;;;;4938317;28;20384;-74
2023/02/16 12:58:52;;;;;;;;;;;11.80;99.90;;;;;;4939564;28;19926;-74
2023/02/16 13:01:20;;;;;;;;;;;11.80;99.90;;;;;;4945591;28;19934;-75
2023/02/16 13:03:51;;;;;;;;;;;11.90;99.90;;;;;;4950178;28;19926;-75
2023/02/16 13:06:23;;;;;;;;;;;11.90;99.90;;;;;;4948034;28;19933;-75
2023/02/16 13:08:52;;;;;;;;;;;12.00;99.90;;;;;;4946675;28;20495;-75
2023/02/16 13:11:22;;;;;;;;;;;12.10;99.90;;;;;;4945716;28;19927;-76
2023/02/16 13:13:49;;;;;;;;;;;12.20;99.90;;;;;;4947834;28;20009;-73
2023/02/16 13:16:20;;;;;;;;;;;12.00;99.90;;;;;;4947339;28;19934;-73
2023/02/16 13:18:48;;;;;;;;;;;11.90;99.90;;;;;;4949485;28;20687;-73
2023/02/16 13:21:21;;;;;;;;;;;12.10;99.90;;;;;;4945785;28;20147;-73
2023/02/16 13:23:52;;;;;;;;;;;12.20;99.90;;;;;;4942471;28;19937;-72
2023/02/16 13:26:28;;;;;;;;;;;12.30;99.90;;;;;;4948059;28;19927;-73
2023/02/16 13:29:10;;;;;;;;;;;12.30;99.90;;;;;;4954011;28;19933;-74
2023/02/16 13:31:43;;;;;;;;;;;12.50;99.90;;;;;;4945017;28;19954;-74
2023/02/16 13:34:28;;;;;;;;;;;12.30;99.90;;;;;;4953545;28;19933;-75
2023/02/16 13:36:58;;;;;;;;;;;12.10;99.90;;;;;;4948846;28;19941;-71
2023/02/16 13:39:46;;;;;;;;;;;12.10;99.90;;;;;;4949300;28;20409;-70
2023/02/16 13:42:33;;;;;;;;;;;12.20;99.90;;;;;;4949234;28;20384;-70
2023/02/16 13:45:02;;;;;;;;;;;12.20;99.90;;;;;;4953808;28;19934;-71
2023/02/16 13:47:30;;;;;;;;;;;12.10;99.90;;;;;;4947349;28;19927;-71
2023/02/16 13:49:58;;;;;;;;;;;12.20;99.90;;;;;;4946745;28;19933;-71
2023/02/16 13:52:30;;;;;;;;;;;12.20;99.90;;;;;;4946957;28;19933;-72
2023/02/16 13:54:57;;;;;;;;;;;12.20;99.90;;;;;;4947179;29;19927;-69
2023/02/16 13:57:38;;;;;;;;;;;12.10;99.90;;;;;;4945892;28;19954;-71
2023/02/16 14:00:27;;;;;;;;;;;12.10;99.90;;;;;;4955667;28;20017;-72
2023/02/16 14:02:55;;;;;;;;;;;12.10;99.90;;;;;;4946975;28;20264;-72
2023/02/16 14:05:33;;;;;;;;;;;12.10;99.90;;;;;;4944549;28;20041;-72
2023/02/16 14:08:11;;;;;;;;;;;12.10;99.90;;;;;;4942478;28;19934;-71
2023/02/16 14:10:52;;;;;;;;;;;12.10;99.90;;;;;;4955333;28;19934;-71
2023/02/16 14:13:24;;;;;;;;;;;12.00;99.90;;;;;;4946730;28;20292;-71
2023/02/16 14:15:52;;;;;;;;;;;12.00;99.90;;;;;;4942302;28;19966;-73
2023/02/16 14:18:27;;;;;;;;;;;12.10;99.90;;;;;;4950322;28;19931;-71
2023/02/16 14:21:00;;;;;;;;;;;12.10;99.90;;;;;;4948600;28;19933;-70
2023/02/16 14:23:27;;;;;;;;;;;12.10;99.90;;;;;;4951917;28;19930;-70
2023/02/16 14:26:00;;;;;;;;;;;12.20;99.90;;;;;;4943483;28;20024;-71
2023/02/16 14:28:46;;;;;;;;;;;12.30;99.90;;;;;;4944777;28;19932;-71
2023/02/16 14:31:17;;;;;;;;;;;12.40;99.90;;;;;;4946190;28;19934;-73
2023/02/16 14:33:47;;;;;;;;;;;12.40;99.90;;;;;;4947412;28;19926;-73
2023/02/16 14:36:15;;;;;;;;;;;12.50;99.90;;;;;;4952926;28;19945;-74
2023/02/16 14:38:46;;;;;;;;;;;12.50;99.90;;;;;;4951541;28;20310;-75
2023/02/16 14:41:23;;;;;;;;;;;12.50;99.90;;;;;;4942922;28;20087;-75
2023/02/16 14:43:52;;;;;;;;;;;12.40;99.90;;;;;;4950128;28;19933;-74
2023/02/16 14:46:30;;;;;;;;;;;12.20;99.90;;;;;;4946333;28;19926;-71
2023/02/16 14:49:12;;;;;;;;;;;12.20;99.90;;;;;;4946877;28;19933;-71
2023/02/16 14:51:55;;;;;;;;;;;12.30;99.90;;;;;;4947436;28;20064;-71
2023/02/16 14:54:56;;;;;;;;;;;12.30;99.90;;;;;;4950281;28;19941;-73
2023/02/16 14:57:26;;;;;;;;;;;12.30;99.90;;;;;;4947346;28;19935;-73
2023/02/16 14:59:56;;;;;;;;;;;12.30;99.90;;;;;;4955927;28;19988;-74
2023/02/16 15:02:26;;;;;;;;;;;12.30;99.90;;;;;;4980757;22;20239;-72
2023/02/16 15:04:53;;;;;;;;;;;12.30;99.90;;;;;;5096427;28;19938;-72
2023/02/16 15:07:20;;;;;;;;;;;12.30;99.90;;;;;;5096256;28;19931;-72
2023/02/16 15:09:49;;;;;;;;;;;12.30;99.90;;;;;;5104633;28;20418;-72
2023/02/16 15:12:21;;;;;;;;;;;12.20;99.90;;;;;;5095556;28;20398;-73
2023/02/16 15:14:49;;;;;;;;;;;12.20;99.90;;;;;;5098405;28;19969;-71